BEARDSLEY LAKE (BRD)

Elevation: 3398' · STANISLAUS R basin · Operator: US Bureau of Reclamation

Provisional data, subject to change.
Query executed Wednesday at 23:49:06   clock

Select a sensor type for a plot of data.
Note: Reservoir Flows are daily averages.

Earlier

Date STORAGE    RES CHG    OUTFLOW    PPT INC   
 AF   AF   CFS   INCHES  
10/27/2014 37676 -77 64 0.00
10/28/2014 37611 -65 65 0.00
10/29/2014 37535 -76 65 0.00
10/30/2014 37468 -67 65 0.00
10/31/2014 37819 351 64 0.00
11/01/2014 38262 443 65 1.19
11/02/2014 38666 404 65 0.00
11/03/2014 39251 585 65 0.00
11/04/2014 39747 496 65 0.00
11/05/2014 40119 372 67 0.00
11/06/2014 40702 583 66 0.00
11/07/2014 41151 449 66 0.00
11/08/2014 41701 550 67 0.00
11/09/2014 42185 484 68 0.00
11/10/2014 42628 443 68 0.00
11/11/2014 43090 462 68 0.00
11/12/2014 43754 664 69 0.00
11/13/2014 44487 733 69 0.00
11/14/2014 44439 -48 144 0.00
11/15/2014 44300 -139 203 0.00
11/16/2014 44151 -149 201 0.00
11/17/2014 44177 26 201 0.00
11/18/2014 44097 -80 200 0.00
11/19/2014 44081 -16 200 0.00
11/20/2014 44027 -54 201 0.09
11/21/2014 43754 -273 266 0.11
11/22/2014 43227 -527 398 0.90
11/23/2014 42739 -488 396 0.07
11/24/2014 42179 -560 395 0.00
11/25/2014 41758 -421 398 0.00
11/26/2014 -- -- -- --

Later | Latest

Warning! This data is preliminary and subject to revision.

Show BRD Map | Plot BRD Data | 1 Month BRD Data | Real-Time BRD Data | BRD Info